Vento Di Levante — IBNN — position and weather

sailwx.info

Track history (hours):
 
Tides and Currents Weather Stations Pressure Air Temp Water Temp Dewpoint Dewpoint Depression Visibility Wind Speed Wind Dir Waves Ship Positions

Vento Di Levante

Last reported at 2018-Feb-22 08:03 UTC. Time now 2018-Feb-22 09:22 UTC.
Position N 39°24' W 000°17'.

Length 211 m; draft 7 m.

Type: Ship (hazmat cat A). MMSI: 247304200.

Date/timePositionNaut miles runAvg speedWind from/ knotsBaromVisibWave heightAir tempDewpointWater temp
2018-Feb-22 08:03N 39°24' W 000°17'0 0.3
2018-Feb-22 07:51N 39°24' W 000°16'0 0.0
2018-Feb-22 03:39N 39°23' W 000°17'0 0.2
2018-Feb-22 03:27N 39°23' W 000°17'0 0.0
2018-Feb-22 01:15N 39°23' W 000°17'0 0.0
2018-Feb-21 21:21N 39°23' W 000°17'3 6.7
2018-Feb-21 20:54N 39°26' W 000°18'0 0.7
2018-Feb-21 20:25N 39°26' W 000°18'0 0.0
2018-Feb-21 19:31N 39°26' W 000°18'0 0.0
2018-Feb-21 19:25N 39°26' W 000°18'0 0.0
2018-Feb-21 18:31N 39°26' W 000°18'0 0.0
2018-Feb-21 18:19N 39°26' W 000°18'0 0.0
2018-Feb-21 17:49N 39°26' W 000°18'0 0.0
2018-Feb-21 16:46N 39°26' W 000°18'0 0.0
2018-Feb-21 16:07N 39°26' W 000°18'0 0.0
2018-Feb-21 15:58N 39°26' W 000°18'0 0.0
2018-Feb-21 15:25N 39°26' W 000°18'0 0.0
2018-Feb-21 14:58N 39°26' W 000°18'0 0.0
2018-Feb-21 14:25N 39°26' W 000°18'0 0.0
2018-Feb-21 13:31N 39°26' W 000°18'0 0.0
2018-Feb-21 13:25N 39°26' W 000°18'0 0.0
2018-Feb-21 12:55N 39°26' W 000°18'0 0.0
2018-Feb-21 12:25N 39°26' W 000°18'0 0.0
2018-Feb-21 11:55N 39°26' W 000°18'0 0.0
2018-Feb-21 11:16N 39°26' W 000°18'0 0.0
2018-Feb-21 10:55N 39°26' W 000°18'0 0.0
2018-Feb-21 10:22N 39°26' W 000°18'0 0.0
2018-Feb-21 09:52N 39°26' W 000°18'0 0.0
2018-Feb-21 09:25N 39°26' W 000°18'0 0.0
2018-Feb-21 08:37N 39°26' W 000°18'0 0.0
2018-Feb-21 08:25N 39°26' W 000°18'0 0.0
2018-Feb-21 07:52N 39°26' W 000°18'0 0.0
2018-Feb-21 07:22N 39°26' W 000°18'0 0.0
2018-Feb-21 06:58N 39°26' W 000°18'0 0.0
2018-Feb-21 06:19N 39°26' W 000°18'0 0.0
2018-Feb-21 05:46N 39°26' W 000°18'0 0.0
2018-Feb-21 05:30N 39°26' W 000°18'1 1.8
2018-Feb-21 04:59N 39°26' W 000°18'81 9.4
2018-Feb-20 20:21N 38°05' W 000°04'512.6
2018-Feb-20 19:55N 38°00' W 000°08'512.7
2018-Feb-20 19:30N 37°56' W 000°12'613.0
2018-Feb-20 19:00N 37°50' W 000°16'815.7
2018-Feb-20 18:30N 37°44' W 000°22'816.7
2018-Feb-20 18:00N 37°37' W 000°28'816.1
2018-Feb-20 17:30N 37°31' W 000°34'815.8
2018-Feb-20 17:00N 37°26' W 000°41'815.8
2018-Feb-20 16:30N 37°20' W 000°49'815.8
2018-Feb-20 16:00N 37°15' W 000°56'815.6
2018-Feb-20 15:29N 37°10' W 001°04'20916.2
2018-Feb-20 02:32N 36°01' W 005°10'219.5
2018-Feb-20 02:27N 36°00' W 005°12'919.8
2018-Feb-20 02:00N 35°59' W 005°22'1219.3
2018-Feb-20 01:24N 35°55' W 005°36'  
Track history (hours):
 
Tides and Currents Weather Stations Pressure Air Temp Water Temp Dewpoint Dewpoint Depression Visibility Wind Speed Wind Dir Waves Ship Positions

Vento Di Levante

Last reported at 2018-Feb-22 08:03 UTC. Time now 2018-Feb-22 09:22 UTC.
Position N 39°24' W 000°17'.

Length 211 m; draft 7 m.

Type: Ship (hazmat cat A). MMSI: 247304200.

Date/timePositionNaut miles runAvg speedWind from/ knotsBaromVisibWave heightAir tempDewpointWater temp
2018-Feb-22 08:03N 39°24' W 000°17'0 0.3
2018-Feb-22 07:51N 39°24' W 000°16'0 0.0
2018-Feb-22 03:39N 39°23' W 000°17'0 0.2
2018-Feb-22 03:27N 39°23' W 000°17'0 0.0
2018-Feb-22 01:15N 39°23' W 000°17'0 0.0
2018-Feb-21 21:21N 39°23' W 000°17'3 6.7
2018-Feb-21 20:54N 39°26' W 000°18'0 0.7
2018-Feb-21 20:25N 39°26' W 000°18'0 0.0
2018-Feb-21 19:31N 39°26' W 000°18'0 0.0
2018-Feb-21 19:25N 39°26' W 000°18'0 0.0
2018-Feb-21 18:31N 39°26' W 000°18'0 0.0
2018-Feb-21 18:19N 39°26' W 000°18'0 0.0
2018-Feb-21 17:49N 39°26' W 000°18'0 0.0
2018-Feb-21 16:46N 39°26' W 000°18'0 0.0
2018-Feb-21 16:07N 39°26' W 000°18'0 0.0
2018-Feb-21 15:58N 39°26' W 000°18'0 0.0
2018-Feb-21 15:25N 39°26' W 000°18'0 0.0
2018-Feb-21 14:58N 39°26' W 000°18'0 0.0
2018-Feb-21 14:25N 39°26' W 000°18'0 0.0
2018-Feb-21 13:31N 39°26' W 000°18'0 0.0
2018-Feb-21 13:25N 39°26' W 000°18'0 0.0
2018-Feb-21 12:55N 39°26' W 000°18'0 0.0
2018-Feb-21 12:25N 39°26' W 000°18'0 0.0
2018-Feb-21 11:55N 39°26' W 000°18'0 0.0
2018-Feb-21 11:16N 39°26' W 000°18'0 0.0
2018-Feb-21 10:55N 39°26' W 000°18'0 0.0
2018-Feb-21 10:22N 39°26' W 000°18'0 0.0
2018-Feb-21 09:52N 39°26' W 000°18'0 0.0
2018-Feb-21 09:25N 39°26' W 000°18'0 0.0
2018-Feb-21 08:37N 39°26' W 000°18'0 0.0
2018-Feb-21 08:25N 39°26' W 000°18'0 0.0
2018-Feb-21 07:52N 39°26' W 000°18'0 0.0
2018-Feb-21 07:22N 39°26' W 000°18'0 0.0
2018-Feb-21 06:58N 39°26' W 000°18'0 0.0
2018-Feb-21 06:19N 39°26' W 000°18'0 0.0
2018-Feb-21 05:46N 39°26' W 000°18'0 0.0
2018-Feb-21 05:30N 39°26' W 000°18'1 1.8
2018-Feb-21 04:59N 39°26' W 000°18'81 9.4
2018-Feb-20 20:21N 38°05' W 000°04'512.6
2018-Feb-20 19:55N 38°00' W 000°08'512.7
2018-Feb-20 19:30N 37°56' W 000°12'613.0
2018-Feb-20 19:00N 37°50' W 000°16'815.7
2018-Feb-20 18:30N 37°44' W 000°22'816.7
2018-Feb-20 18:00N 37°37' W 000°28'816.1
2018-Feb-20 17:30N 37°31' W 000°34'815.8
2018-Feb-20 17:00N 37°26' W 000°41'815.8
2018-Feb-20 16:30N 37°20' W 000°49'815.8
2018-Feb-20 16:00N 37°15' W 000°56'815.6
2018-Feb-20 15:29N 37°10' W 001°04'20916.2
2018-Feb-20 02:32N 36°01' W 005°10'219.5
2018-Feb-20 02:27N 36°00' W 005°12'919.8
2018-Feb-20 02:00N 35°59' W 005°22'1219.3
2018-Feb-20 01:24N 35°55' W 005°36'  

Dump ship's entire track history